sensor_id;sensor_type;location;lat;lon;timestamp;P1;durP1;ratioP1;P2;durP2;ratioP2
50585;SDS011;36542;51.700;8.846;2023-04-03T00:00:19;6.97;;;2.20;;
50585;SDS011;36542;51.700;8.846;2023-04-03T00:02:45;4.20;;;2.10;;
50585;SDS011;36542;51.700;8.846;2023-04-03T00:05:10;5.83;;;1.90;;
50585;SDS011;36542;51.700;8.846;2023-04-03T00:07:36;4.27;;;1.80;;
50585;SDS011;36542;51.700;8.846;2023-04-03T00:10:02;4.27;;;2.00;;
50585;SDS011;36542;51.700;8.846;2023-04-03T00:12:28;5.60;;;1.87;;
50585;SDS011;36542;51.700;8.846;2023-04-03T00:14:53;3.40;;;1.93;;
50585;SDS011;36542;51.700;8.846;2023-04-03T00:17:19;6.57;;;2.03;;
50585;SDS011;36542;51.700;8.846;2023-04-03T00:19:44;8.67;;;2.93;;
50585;SDS011;36542;51.700;8.846;2023-04-03T00:22:10;4.53;;;2.70;;
50585;SDS011;36542;51.700;8.846;2023-04-03T00:24:35;6.10;;;1.97;;
50585;SDS011;36542;51.700;8.846;2023-04-03T00:27:01;5.23;;;2.70;;
50585;SDS011;36542;51.700;8.846;2023-04-03T00:29:26;6.30;;;2.17;;
50585;SDS011;36542;51.700;8.846;2023-04-03T00:31:52;5.53;;;2.20;;
50585;SDS011;36542;51.700;8.846;2023-04-03T00:34:17;5.07;;;2.40;;
50585;SDS011;36542;51.700;8.846;2023-04-03T00:36:43;7.17;;;2.77;;
50585;SDS011;36542;51.700;8.846;2023-04-03T00:39:08;4.03;;;2.20;;
50585;SDS011;36542;51.700;8.846;2023-04-03T00:41:34;5.37;;;2.10;;
50585;SDS011;36542;51.700;8.846;2023-04-03T00:44:00;5.23;;;2.17;;
50585;SDS011;36542;51.700;8.846;2023-04-03T00:46:25;4.43;;;2.30;;
50585;SDS011;36542;51.700;8.846;2023-04-03T00:48:51;4.50;;;2.27;;
50585;SDS011;36542;51.700;8.846;2023-04-03T00:51:18;4.50;;;2.20;;
50585;SDS011;36542;51.700;8.846;2023-04-03T00:53:49;8.33;;;2.50;;
50585;SDS011;36542;51.700;8.846;2023-04-03T00:56:19;11.50;;;2.63;;
50585;SDS011;36542;51.700;8.846;2023-04-03T00:58:50;6.00;;;1.90;;
50585;SDS011;36542;51.700;8.846;2023-04-03T01:01:22;7.70;;;1.90;;
50585;SDS011;36542;51.700;8.846;2023-04-03T01:03:50;4.57;;;2.60;;
50585;SDS011;36542;51.700;8.846;2023-04-03T01:06:17;5.97;;;2.03;;
50585;SDS011;36542;51.700;8.846;2023-04-03T01:08:47;3.27;;;2.00;;
50585;SDS011;36542;51.700;8.846;2023-04-03T01:11:14;7.43;;;2.40;;
50585;SDS011;36542;51.700;8.846;2023-04-03T01:13:39;6.00;;;2.33;;
50585;SDS011;36542;51.700;8.846;2023-04-03T01:16:05;3.93;;;2.03;;
50585;SDS011;36542;51.700;8.846;2023-04-03T01:18:32;7.77;;;2.53;;
50585;SDS011;36542;51.700;8.846;2023-04-03T01:21:17;5.23;;;2.30;;
50585;SDS011;36542;51.700;8.846;2023-04-03T01:23:54;4.83;;;2.17;;
50585;SDS011;36542;51.700;8.846;2023-04-03T01:26:24;6.07;;;2.20;;
50585;SDS011;36542;51.700;8.846;2023-04-03T01:28:50;3.67;;;2.03;;
50585;SDS011;36542;51.700;8.846;2023-04-03T01:31:25;5.83;;;2.57;;
50585;SDS011;36542;51.700;8.846;2023-04-03T01:33:55;5.90;;;2.67;;
50585;SDS011;36542;51.700;8.846;2023-04-03T01:36:25;4.30;;;2.33;;
50585;SDS011;36542;51.700;8.846;2023-04-03T01:38:54;5.47;;;2.67;;
50585;SDS011;36542;51.700;8.846;2023-04-03T01:41:20;4.57;;;1.90;;
50585;SDS011;36542;51.700;8.846;2023-04-03T01:43:47;9.60;;;2.40;;
50585;SDS011;36542;51.700;8.846;2023-04-03T01:46:13;6.53;;;2.20;;
50585;SDS011;36542;51.700;8.846;2023-04-03T01:48:39;5.60;;;2.47;;
50585;SDS011;36542;51.700;8.846;2023-04-03T01:51:05;6.53;;;2.40;;
50585;SDS011;36542;51.700;8.846;2023-04-03T01:53:31;3.87;;;2.10;;
50585;SDS011;36542;51.700;8.846;2023-04-03T01:55:56;5.77;;;2.60;;
50585;SDS011;36542;51.700;8.846;2023-04-03T01:58:22;4.10;;;2.30;;
50585;SDS011;36542;51.700;8.846;2023-04-03T02:00:47;6.80;;;2.77;;
50585;SDS011;36542;51.700;8.846;2023-04-03T02:03:13;5.13;;;2.40;;
50585;SDS011;36542;51.700;8.846;2023-04-03T02:05:38;3.00;;;1.60;;
50585;SDS011;36542;51.700;8.846;2023-04-03T02:08:04;8.47;;;2.20;;
50585;SDS011;36542;51.700;8.846;2023-04-03T02:10:29;4.47;;;2.30;;
50585;SDS011;36542;51.700;8.846;2023-04-03T02:12:55;4.57;;;2.27;;
50585;SDS011;36542;51.700;8.846;2023-04-03T02:15:21;8.43;;;2.30;;
50585;SDS011;36542;51.700;8.846;2023-04-03T02:17:46;8.00;;;2.30;;
50585;SDS011;36542;51.700;8.846;2023-04-03T02:20:12;3.00;;;2.37;;
50585;SDS011;36542;51.700;8.846;2023-04-03T02:22:37;4.97;;;2.27;;
50585;SDS011;36542;51.700;8.846;2023-04-03T02:25:03;4.10;;;2.27;;
50585;SDS011;36542;51.700;8.846;2023-04-03T02:27:29;4.27;;;1.73;;
50585;SDS011;36542;51.700;8.846;2023-04-03T02:29:54;4.97;;;2.80;;
50585;SDS011;36542;51.700;8.846;2023-04-03T02:32:20;6.53;;;2.60;;
50585;SDS011;36542;51.700;8.846;2023-04-03T02:34:45;4.50;;;2.23;;
50585;SDS011;36542;51.700;8.846;2023-04-03T02:37:11;3.87;;;1.90;;
50585;SDS011;36542;51.700;8.846;2023-04-03T02:39:36;7.17;;;2.13;;
50585;SDS011;36542;51.700;8.846;2023-04-03T02:42:02;8.77;;;2.23;;
50585;SDS011;36542;51.700;8.846;2023-04-03T02:44:28;5.40;;;2.23;;
50585;SDS011;36542;51.700;8.846;2023-04-03T02:46:54;5.87;;;2.63;;
50585;SDS011;36542;51.700;8.846;2023-04-03T02:49:20;4.83;;;2.40;;
50585;SDS011;36542;51.700;8.846;2023-04-03T02:51:45;3.90;;;2.13;;
50585;SDS011;36542;51.700;8.846;2023-04-03T02:54:12;7.97;;;2.37;;
50585;SDS011;36542;51.700;8.846;2023-04-03T02:56:38;4.93;;;2.20;;
50585;SDS011;36542;51.700;8.846;2023-04-03T02:59:03;7.40;;;2.43;;
50585;SDS011;36542;51.700;8.846;2023-04-03T03:01:29;5.70;;;2.60;;
50585;SDS011;36542;51.700;8.846;2023-04-03T03:03:57;4.87;;;1.80;;
50585;SDS011;36542;51.700;8.846;2023-04-03T03:06:24;4.30;;;2.03;;
50585;SDS011;36542;51.700;8.846;2023-04-03T03:08:49;3.53;;;1.83;;
50585;SDS011;36542;51.700;8.846;2023-04-03T03:11:15;7.00;;;2.53;;
50585;SDS011;36542;51.700;8.846;2023-04-03T03:13:41;15.03;;;2.80;;
50585;SDS011;36542;51.700;8.846;2023-04-03T03:16:06;8.80;;;2.37;;
50585;SDS011;36542;51.700;8.846;2023-04-03T03:18:33;6.07;;;1.97;;
50585;SDS011;36542;51.700;8.846;2023-04-03T03:21:00;7.10;;;2.00;;
50585;SDS011;36542;51.700;8.846;2023-04-03T03:23:27;6.10;;;2.10;;
50585;SDS011;36542;51.700;8.846;2023-04-03T03:25:57;4.73;;;2.10;;
50585;SDS011;36542;51.700;8.846;2023-04-03T03:28:25;4.47;;;2.30;;
50585;SDS011;36542;51.700;8.846;2023-04-03T03:30:50;5.00;;;2.10;;
50585;SDS011;36542;51.700;8.846;2023-04-03T03:33:16;7.00;;;2.47;;
50585;SDS011;36542;51.700;8.846;2023-04-03T03:35:43;6.03;;;2.30;;
50585;SDS011;36542;51.700;8.846;2023-04-03T03:38:09;5.70;;;1.93;;
50585;SDS011;36542;51.700;8.846;2023-04-03T03:40:35;6.50;;;2.50;;
50585;SDS011;36542;51.700;8.846;2023-04-03T03:43:00;4.93;;;1.97;;
50585;SDS011;36542;51.700;8.846;2023-04-03T03:45:26;10.10;;;2.30;;
50585;SDS011;36542;51.700;8.846;2023-04-03T03:47:51;7.47;;;2.13;;
50585;SDS011;36542;51.700;8.846;2023-04-03T03:50:17;7.47;;;2.37;;
50585;SDS011;36542;51.700;8.846;2023-04-03T03:52:42;4.90;;;1.70;;
50585;SDS011;36542;51.700;8.846;2023-04-03T03:55:08;4.57;;;2.00;;
50585;SDS011;36542;51.700;8.846;2023-04-03T03:57:34;5.57;;;1.37;;
50585;SDS011;36542;51.700;8.846;2023-04-03T04:00:00;5.23;;;1.97;;
50585;SDS011;36542;51.700;8.846;2023-04-03T04:02:25;4.47;;;2.00;;
50585;SDS011;36542;51.700;8.846;2023-04-03T04:04:51;6.00;;;1.40;;
50585;SDS011;36542;51.700;8.846;2023-04-03T04:07:16;5.30;;;1.77;;
50585;SDS011;36542;51.700;8.846;2023-04-03T04:09:42;1.57;;;1.10;;
50585;SDS011;36542;51.700;8.846;2023-04-03T04:12:07;6.60;;;1.67;;
50585;SDS011;36542;51.700;8.846;2023-04-03T04:14:33;8.07;;;2.63;;
50585;SDS011;36542;51.700;8.846;2023-04-03T04:16:58;5.03;;;1.40;;
50585;SDS011;36542;51.700;8.846;2023-04-03T04:19:24;5.50;;;1.47;;
50585;SDS011;36542;51.700;8.846;2023-04-03T04:21:49;4.50;;;2.43;;
50585;SDS011;36542;51.700;8.846;2023-04-03T04:24:15;4.33;;;1.53;;
50585;SDS011;36542;51.700;8.846;2023-04-03T04:26:40;6.73;;;1.80;;
50585;SDS011;36542;51.700;8.846;2023-04-03T04:29:06;4.03;;;1.80;;
50585;SDS011;36542;51.700;8.846;2023-04-03T04:31:31;5.83;;;1.60;;
50585;SDS011;36542;51.700;8.846;2023-04-03T04:33:57;5.87;;;1.93;;
50585;SDS011;36542;51.700;8.846;2023-04-03T04:36:22;2.77;;;1.30;;
50585;SDS011;36542;51.700;8.846;2023-04-03T04:38:48;4.63;;;1.63;;
50585;SDS011;36542;51.700;8.846;2023-04-03T04:41:13;7.60;;;2.00;;
50585;SDS011;36542;51.700;8.846;2023-04-03T04:43:39;3.83;;;1.57;;
50585;SDS011;36542;51.700;8.846;2023-04-03T04:46:05;3.87;;;1.83;;
50585;SDS011;36542;51.700;8.846;2023-04-03T04:48:33;3.10;;;1.60;;
50585;SDS011;36542;51.700;8.846;2023-04-03T04:50:59;4.97;;;1.70;;
50585;SDS011;36542;51.700;8.846;2023-04-03T04:53:25;10.57;;;2.00;;
50585;SDS011;36542;51.700;8.846;2023-04-03T04:55:51;7.57;;;2.20;;
50585;SDS011;36542;51.700;8.846;2023-04-03T04:58:17;8.63;;;2.30;;
50585;SDS011;36542;51.700;8.846;2023-04-03T05:00:43;6.23;;;2.40;;
50585;SDS011;36542;51.700;8.846;2023-04-03T05:03:09;8.10;;;2.07;;
50585;SDS011;36542;51.700;8.846;2023-04-03T05:05:34;5.50;;;2.03;;
50585;SDS011;36542;51.700;8.846;2023-04-03T05:08:00;5.87;;;2.30;;
50585;SDS011;36542;51.700;8.846;2023-04-03T05:10:27;6.37;;;1.90;;
50585;SDS011;36542;51.700;8.846;2023-04-03T05:12:52;12.10;;;2.43;;
50585;SDS011;36542;51.700;8.846;2023-04-03T05:15:18;8.67;;;2.00;;
50585;SDS011;36542;51.700;8.846;2023-04-03T05:17:43;5.13;;;2.00;;
50585;SDS011;36542;51.700;8.846;2023-04-03T05:20:09;5.23;;;2.17;;
50585;SDS011;36542;51.700;8.846;2023-04-03T05:22:35;9.20;;;2.70;;
50585;SDS011;36542;51.700;8.846;2023-04-03T05:25:01;4.20;;;2.10;;
50585;SDS011;36542;51.700;8.846;2023-04-03T05:27:26;7.47;;;2.20;;
50585;SDS011;36542;51.700;8.846;2023-04-03T05:29:53;10.73;;;2.83;;
50585;SDS011;36542;51.700;8.846;2023-04-03T05:32:19;7.53;;;3.23;;
50585;SDS011;36542;51.700;8.846;2023-04-03T05:34:45;5.27;;;1.97;;
50585;SDS011;36542;51.700;8.846;2023-04-03T05:37:11;4.77;;;1.87;;
50585;SDS011;36542;51.700;8.846;2023-04-03T05:39:37;5.37;;;2.60;;
50585;SDS011;36542;51.700;8.846;2023-04-03T05:42:05;5.57;;;2.27;;
50585;SDS011;36542;51.700;8.846;2023-04-03T05:44:30;3.37;;;2.27;;
50585;SDS011;36542;51.700;8.846;2023-04-03T05:46:56;6.70;;;2.77;;
50585;SDS011;36542;51.700;8.846;2023-04-03T05:49:21;8.93;;;2.10;;
50585;SDS011;36542;51.700;8.846;2023-04-03T05:51:47;3.83;;;2.07;;
50585;SDS011;36542;51.700;8.846;2023-04-03T05:54:13;6.77;;;2.10;;
50585;SDS011;36542;51.700;8.846;2023-04-03T05:56:44;5.70;;;2.00;;
50585;SDS011;36542;51.700;8.846;2023-04-03T05:59:10;6.97;;;2.87;;
50585;SDS011;36542;51.700;8.846;2023-04-03T06:01:35;3.47;;;2.10;;
50585;SDS011;36542;51.700;8.846;2023-04-03T06:04:02;8.70;;;2.70;;
50585;SDS011;36542;51.700;8.846;2023-04-03T06:06:42;3.93;;;2.40;;
50585;SDS011;36542;51.700;8.846;2023-04-03T06:09:09;5.10;;;2.23;;
50585;SDS011;36542;51.700;8.846;2023-04-03T06:11:35;7.87;;;1.87;;
50585;SDS011;36542;51.700;8.846;2023-04-03T06:14:00;5.50;;;2.00;;
50585;SDS011;36542;51.700;8.846;2023-04-03T06:16:26;5.07;;;1.83;;
50585;SDS011;36542;51.700;8.846;2023-04-03T06:18:51;5.33;;;1.97;;
50585;SDS011;36542;51.700;8.846;2023-04-03T06:21:17;4.40;;;1.90;;
50585;SDS011;36542;51.700;8.846;2023-04-03T06:23:42;2.80;;;1.70;;
50585;SDS011;36542;51.700;8.846;2023-04-03T06:26:08;6.70;;;2.33;;
50585;SDS011;36542;51.700;8.846;2023-04-03T06:28:33;4.97;;;1.80;;
50585;SDS011;36542;51.700;8.846;2023-04-03T06:30:59;3.37;;;1.67;;
50585;SDS011;36542;51.700;8.846;2023-04-03T06:33:24;2.90;;;1.53;;
50585;SDS011;36542;51.700;8.846;2023-04-03T06:35:55;4.13;;;2.07;;
50585;SDS011;36542;51.700;8.846;2023-04-03T06:38:22;4.53;;;1.80;;
50585;SDS011;36542;51.700;8.846;2023-04-03T06:40:47;3.47;;;2.10;;
50585;SDS011;36542;51.700;8.846;2023-04-03T06:43:13;5.17;;;2.10;;
50585;SDS011;36542;51.700;8.846;2023-04-03T06:45:38;4.30;;;1.63;;
50585;SDS011;36542;51.700;8.846;2023-04-03T06:48:04;3.83;;;1.60;;
50585;SDS011;36542;51.700;8.846;2023-04-03T06:50:30;3.20;;;1.70;;
50585;SDS011;36542;51.700;8.846;2023-04-03T06:52:55;3.27;;;1.80;;
50585;SDS011;36542;51.700;8.846;2023-04-03T06:55:21;2.80;;;1.40;;
50585;SDS011;36542;51.700;8.846;2023-04-03T06:57:47;3.07;;;1.73;;
50585;SDS011;36542;51.700;8.846;2023-04-03T07:00:13;6.63;;;2.03;;
50585;SDS011;36542;51.700;8.846;2023-04-03T07:02:39;5.30;;;1.53;;
50585;SDS011;36542;51.700;8.846;2023-04-03T07:05:05;3.00;;;1.60;;
50585;SDS011;36542;51.700;8.846;2023-04-03T07:07:31;4.47;;;1.60;;
50585;SDS011;36542;51.700;8.846;2023-04-03T07:09:58;2.73;;;1.20;;
50585;SDS011;36542;51.700;8.846;2023-04-03T07:12:24;4.40;;;1.90;;
50585;SDS011;36542;51.700;8.846;2023-04-03T07:14:50;2.30;;;1.30;;
50585;SDS011;36542;51.700;8.846;2023-04-03T07:17:16;4.07;;;1.50;;
50585;SDS011;36542;51.700;8.846;2023-04-03T07:19:41;5.77;;;1.83;;
50585;SDS011;36542;51.700;8.846;2023-04-03T07:22:07;6.63;;;1.90;;
50585;SDS011;36542;51.700;8.846;2023-04-03T07:24:32;3.83;;;1.80;;
50585;SDS011;36542;51.700;8.846;2023-04-03T07:26:58;4.77;;;1.70;;
50585;SDS011;36542;51.700;8.846;2023-04-03T07:29:23;5.33;;;1.70;;
50585;SDS011;36542;51.700;8.846;2023-04-03T07:31:49;3.50;;;1.63;;
50585;SDS011;36542;51.700;8.846;2023-04-03T07:34:14;3.57;;;1.87;;
50585;SDS011;36542;51.700;8.846;2023-04-03T07:36:40;4.57;;;1.27;;
50585;SDS011;36542;51.700;8.846;2023-04-03T07:39:06;2.53;;;1.70;;
50585;SDS011;36542;51.700;8.846;2023-04-03T07:41:33;3.10;;;1.37;;
50585;SDS011;36542;51.700;8.846;2023-04-03T07:43:58;4.20;;;1.30;;
50585;SDS011;36542;51.700;8.846;2023-04-03T07:46:24;3.13;;;1.37;;
50585;SDS011;36542;51.700;8.846;2023-04-03T07:48:50;2.37;;;1.10;;
50585;SDS011;36542;51.700;8.846;2023-04-03T07:51:16;2.40;;;1.17;;
50585;SDS011;36542;51.700;8.846;2023-04-03T07:53:42;2.70;;;1.07;;
50585;SDS011;36542;51.700;8.846;2023-04-03T07:56:07;4.53;;;1.90;;
50585;SDS011;36542;51.700;8.846;2023-04-03T07:58:33;2.87;;;1.03;;
50585;SDS011;36542;51.700;8.846;2023-04-03T08:00:59;4.13;;;1.17;;
50585;SDS011;36542;51.700;8.846;2023-04-03T08:03:24;3.33;;;1.30;;
50585;SDS011;36542;51.700;8.846;2023-04-03T08:05:50;3.63;;;0.90;;
50585;SDS011;36542;51.700;8.846;2023-04-03T08:08:17;1.23;;;0.93;;
50585;SDS011;36542;51.700;8.846;2023-04-03T08:10:48;1.47;;;1.00;;
50585;SDS011;36542;51.700;8.846;2023-04-03T08:13:15;2.33;;;1.00;;
50585;SDS011;36542;51.700;8.846;2023-04-03T08:15:40;2.60;;;1.10;;
50585;SDS011;36542;51.700;8.846;2023-04-03T08:18:06;3.07;;;1.50;;
50585;SDS011;36542;51.700;8.846;2023-04-03T08:20:31;4.37;;;1.37;;
50585;SDS011;36542;51.700;8.846;2023-04-03T08:22:57;1.00;;;0.80;;
50585;SDS011;36542;51.700;8.846;2023-04-03T08:25:22;2.37;;;1.03;;
50585;SDS011;36542;51.700;8.846;2023-04-03T08:27:48;2.10;;;1.00;;
50585;SDS011;36542;51.700;8.846;2023-04-03T08:30:14;2.33;;;0.90;;
50585;SDS011;36542;51.700;8.846;2023-04-03T08:32:39;3.87;;;1.40;;
50585;SDS011;36542;51.700;8.846;2023-04-03T08:35:07;1.43;;;1.17;;
50585;SDS011;36542;51.700;8.846;2023-04-03T08:37:34;3.90;;;1.53;;
50585;SDS011;36542;51.700;8.846;2023-04-03T08:40:01;2.93;;;1.17;;
50585;SDS011;36542;51.700;8.846;2023-04-03T08:42:36;1.90;;;0.97;;
50585;SDS011;36542;51.700;8.846;2023-04-03T08:45:21;2.73;;;0.90;;
50585;SDS011;36542;51.700;8.846;2023-04-03T08:50:39;3.13;;;1.27;;
50585;SDS011;36542;51.700;8.846;2023-04-03T08:53:18;2.60;;;1.47;;
50585;SDS011;36542;51.700;8.846;2023-04-03T08:55:50;3.47;;;1.20;;
50585;SDS011;36542;51.700;8.846;2023-04-03T08:58:19;3.40;;;1.10;;
50585;SDS011;36542;51.700;8.846;2023-04-03T09:00:59;2.43;;;1.07;;
50585;SDS011;36542;51.700;8.846;2023-04-03T09:03:29;3.37;;;1.30;;
50585;SDS011;36542;51.700;8.846;2023-04-03T09:05:59;2.83;;;1.10;;
50585;SDS011;36542;51.700;8.846;2023-04-03T09:08:46;2.60;;;1.00;;
50585;SDS011;36542;51.700;8.846;2023-04-03T09:11:26;2.33;;;1.00;;
50585;SDS011;36542;51.700;8.846;2023-04-03T09:14:19;2.87;;;0.90;;
50585;SDS011;36542;51.700;8.846;2023-04-03T09:16:55;2.43;;;1.20;;
50585;SDS011;36542;51.700;8.846;2023-04-03T09:22:12;4.70;;;1.07;;
50585;SDS011;36542;51.700;8.846;2023-04-03T09:25:02;2.13;;;1.03;;
50585;SDS011;36542;51.700;8.846;2023-04-03T09:27:37;1.97;;;1.17;;
50585;SDS011;36542;51.700;8.846;2023-04-03T09:30:03;1.80;;;1.10;;
50585;SDS011;36542;51.700;8.846;2023-04-03T09:32:35;3.40;;;1.00;;
50585;SDS011;36542;51.700;8.846;2023-04-03T09:37:58;2.63;;;1.30;;
50585;SDS011;36542;51.700;8.846;2023-04-03T09:40:41;3.73;;;1.30;;
50585;SDS011;36542;51.700;8.846;2023-04-03T09:45:56;3.10;;;1.23;;
50585;SDS011;36542;51.700;8.846;2023-04-03T09:48:52;1.57;;;0.97;;
50585;SDS011;36542;51.700;8.846;2023-04-03T09:51:21;2.20;;;1.00;;
50585;SDS011;36542;51.700;8.846;2023-04-03T09:53:52;1.17;;;0.93;;
50585;SDS011;36542;51.700;8.846;2023-04-03T09:58:48;2.73;;;0.87;;
50585;SDS011;36542;51.700;8.846;2023-04-03T10:04:11;4.37;;;1.10;;
50585;SDS011;36542;51.700;8.846;2023-04-03T10:06:41;2.57;;;0.87;;
50585;SDS011;36542;51.700;8.846;2023-04-03T10:12:05;1.60;;;0.80;;
50585;SDS011;36542;51.700;8.846;2023-04-03T10:14:40;2.73;;;0.90;;
50585;SDS011;36542;51.700;8.846;2023-04-03T10:19:57;2.23;;;1.17;;
50585;SDS011;36542;51.700;8.846;2023-04-03T10:28:00;1.17;;;0.80;;
50585;SDS011;36542;51.700;8.846;2023-04-03T10:30:34;3.03;;;0.70;;
50585;SDS011;36542;51.700;8.846;2023-04-03T10:35:59;1.90;;;0.90;;
50585;SDS011;36542;51.700;8.846;2023-04-03T10:44:25;2.37;;;1.00;;
50585;SDS011;36542;51.700;8.846;2023-04-03T10:58:00;1.47;;;1.00;;
50585;SDS011;36542;51.700;8.846;2023-04-03T11:03:08;4.67;;;1.00;;
50585;SDS011;36542;51.700;8.846;2023-04-03T11:05:42;3.70;;;1.20;;
50585;SDS011;36542;51.700;8.846;2023-04-03T11:08:21;1.57;;;1.33;;
50585;SDS011;36542;51.700;8.846;2023-04-03T11:10:50;3.80;;;1.60;;
50585;SDS011;36542;51.700;8.846;2023-04-03T11:15:48;3.03;;;0.97;;
50585;SDS011;36542;51.700;8.846;2023-04-03T11:18:25;4.10;;;1.53;;
50585;SDS011;36542;51.700;8.846;2023-04-03T11:21:04;1.73;;;1.10;;
50585;SDS011;36542;51.700;8.846;2023-04-03T11:23:54;3.20;;;1.17;;
50585;SDS011;36542;51.700;8.846;2023-04-03T11:26:24;1.33;;;0.83;;
50585;SDS011;36542;51.700;8.846;2023-04-03T11:28:55;1.93;;;1.33;;
50585;SDS011;36542;51.700;8.846;2023-04-03T11:32:07;2.17;;;0.90;;
50585;SDS011;36542;51.700;8.846;2023-04-03T11:37:01;5.10;;;1.23;;
50585;SDS011;36542;51.700;8.846;2023-04-03T11:39:32;3.70;;;1.10;;
50585;SDS011;36542;51.700;8.846;2023-04-03T11:42:16;3.20;;;1.03;;
50585;SDS011;36542;51.700;8.846;2023-04-03T11:47:52;3.27;;;1.30;;
50585;SDS011;36542;51.700;8.846;2023-04-03T11:50:38;2.33;;;1.27;;
50585;SDS011;36542;51.700;8.846;2023-04-03T11:55:41;1.97;;;1.33;;
50585;SDS011;36542;51.700;8.846;2023-04-03T11:58:17;1.90;;;1.00;;
50585;SDS011;36542;51.700;8.846;2023-04-03T12:04:06;2.80;;;1.30;;
50585;SDS011;36542;51.700;8.846;2023-04-03T12:16:19;3.73;;;1.37;;
50585;SDS011;36542;51.700;8.846;2023-04-03T12:21:21;3.10;;;1.63;;
50585;SDS011;36542;51.700;8.846;2023-04-03T12:26:39;2.77;;;1.30;;
50585;SDS011;36542;51.700;8.846;2023-04-03T12:37:40;3.30;;;1.47;;
50585;SDS011;36542;51.700;8.846;2023-04-03T12:40:28;3.17;;;1.27;;
50585;SDS011;36542;51.700;8.846;2023-04-03T12:43:09;4.83;;;1.53;;
50585;SDS011;36542;51.700;8.846;2023-04-03T12:48:18;5.60;;;1.43;;
50585;SDS011;36542;51.700;8.846;2023-04-03T12:50:51;3.37;;;1.30;;
50585;SDS011;36542;51.700;8.846;2023-04-03T12:53:24;1.23;;;1.10;;
50585;SDS011;36542;51.700;8.846;2023-04-03T12:55:55;6.87;;;1.20;;
50585;SDS011;36542;51.700;8.846;2023-04-03T12:58:26;4.37;;;1.40;;
50585;SDS011;36542;51.700;8.846;2023-04-03T13:00:59;3.33;;;1.70;;
50585;SDS011;36542;51.700;8.846;2023-04-03T13:03:26;3.33;;;1.20;;
50585;SDS011;36542;51.700;8.846;2023-04-03T13:05:57;1.97;;;1.30;;
50585;SDS011;36542;51.700;8.846;2023-04-03T13:08:26;3.67;;;1.57;;
50585;SDS011;36542;51.700;8.846;2023-04-03T13:11:00;5.03;;;1.50;;
50585;SDS011;36542;51.700;8.846;2023-04-03T13:13:36;1.73;;;1.40;;
50585;SDS011;36542;51.700;8.846;2023-04-03T13:16:11;5.60;;;1.57;;
50585;SDS011;36542;51.700;8.846;2023-04-03T13:18:38;1.80;;;1.27;;
50585;SDS011;36542;51.700;8.846;2023-04-03T13:21:05;2.80;;;1.60;;
50585;SDS011;36542;51.700;8.846;2023-04-03T13:23:44;4.13;;;1.30;;
50585;SDS011;36542;51.700;8.846;2023-04-03T13:26:12;3.23;;;1.37;;
50585;SDS011;36542;51.700;8.846;2023-04-03T13:28:41;2.57;;;1.47;;
50585;SDS011;36542;51.700;8.846;2023-04-03T13:33:42;7.40;;;1.23;;
50585;SDS011;36542;51.700;8.846;2023-04-03T13:36:22;2.77;;;1.30;;
50585;SDS011;36542;51.700;8.846;2023-04-03T13:38:59;3.60;;;1.87;;
50585;SDS011;36542;51.700;8.846;2023-04-03T13:41:47;1.30;;;1.20;;
50585;SDS011;36542;51.700;8.846;2023-04-03T13:46:46;2.77;;;1.53;;
50585;SDS011;36542;51.700;8.846;2023-04-03T13:49:20;4.20;;;1.53;;
50585;SDS011;36542;51.700;8.846;2023-04-03T13:52:01;4.97;;;1.70;;
50585;SDS011;36542;51.700;8.846;2023-04-03T13:54:47;2.47;;;1.40;;
50585;SDS011;36542;51.700;8.846;2023-04-03T13:57:16;2.27;;;1.17;;
50585;SDS011;36542;51.700;8.846;2023-04-03T13:59:41;1.83;;;1.40;;
50585;SDS011;36542;51.700;8.846;2023-04-03T14:07:01;1.80;;;1.50;;
50585;SDS011;36542;51.700;8.846;2023-04-03T14:09:27;2.70;;;1.20;;
50585;SDS011;36542;51.700;8.846;2023-04-03T14:11:53;3.40;;;1.40;;
50585;SDS011;36542;51.700;8.846;2023-04-03T14:14:29;5.23;;;1.73;;
50585;SDS011;36542;51.700;8.846;2023-04-03T14:16:59;3.90;;;1.20;;
50585;SDS011;36542;51.700;8.846;2023-04-03T14:19:29;2.40;;;1.50;;
50585;SDS011;36542;51.700;8.846;2023-04-03T14:21:57;1.97;;;1.67;;
50585;SDS011;36542;51.700;8.846;2023-04-03T14:24:24;1.40;;;0.90;;
50585;SDS011;36542;51.700;8.846;2023-04-03T14:26:51;2.67;;;1.60;;
50585;SDS011;36542;51.700;8.846;2023-04-03T14:29:18;1.77;;;1.40;;
50585;SDS011;36542;51.700;8.846;2023-04-03T14:31:45;2.73;;;1.33;;
50585;SDS011;36542;51.700;8.846;2023-04-03T14:34:13;4.20;;;1.77;;
50585;SDS011;36542;51.700;8.846;2023-04-03T14:36:40;3.03;;;1.13;;
50585;SDS011;36542;51.700;8.846;2023-04-03T14:39:07;5.10;;;1.60;;
50585;SDS011;36542;51.700;8.846;2023-04-03T14:41:35;3.27;;;1.40;;
50585;SDS011;36542;51.700;8.846;2023-04-03T14:44:00;2.80;;;1.60;;
50585;SDS011;36542;51.700;8.846;2023-04-03T14:46:31;2.83;;;1.33;;
50585;SDS011;36542;51.700;8.846;2023-04-03T14:48:59;2.40;;;1.20;;
50585;SDS011;36542;51.700;8.846;2023-04-03T14:51:25;2.70;;;1.53;;
50585;SDS011;36542;51.700;8.846;2023-04-03T14:53:51;2.50;;;1.30;;
50585;SDS011;36542;51.700;8.846;2023-04-03T14:56:25;3.43;;;1.33;;
50585;SDS011;36542;51.700;8.846;2023-04-03T14:58:59;1.97;;;1.30;;
50585;SDS011;36542;51.700;8.846;2023-04-03T15:01:26;1.97;;;1.20;;
50585;SDS011;36542;51.700;8.846;2023-04-03T15:03:53;3.57;;;1.30;;
50585;SDS011;36542;51.700;8.846;2023-04-03T15:06:18;5.10;;;1.50;;
50585;SDS011;36542;51.700;8.846;2023-04-03T15:08:45;5.60;;;1.80;;
50585;SDS011;36542;51.700;8.846;2023-04-03T15:11:12;2.73;;;1.20;;
50585;SDS011;36542;51.700;8.846;2023-04-03T15:13:38;5.63;;;1.43;;
50585;SDS011;36542;51.700;8.846;2023-04-03T15:16:05;2.93;;;1.57;;
50585;SDS011;36542;51.700;8.846;2023-04-03T15:18:37;3.47;;;1.37;;
50585;SDS011;36542;51.700;8.846;2023-04-03T15:21:03;3.10;;;1.33;;
50585;SDS011;36542;51.700;8.846;2023-04-03T15:23:30;2.33;;;1.43;;
50585;SDS011;36542;51.700;8.846;2023-04-03T15:25:55;3.23;;;1.70;;
50585;SDS011;36542;51.700;8.846;2023-04-03T15:28:27;4.83;;;1.50;;
50585;SDS011;36542;51.700;8.846;2023-04-03T15:31:04;2.40;;;1.57;;
50585;SDS011;36542;51.700;8.846;2023-04-03T15:33:30;2.10;;;1.30;;
50585;SDS011;36542;51.700;8.846;2023-04-03T15:35:57;2.00;;;1.60;;
50585;SDS011;36542;51.700;8.846;2023-04-03T15:38:23;2.43;;;1.40;;
50585;SDS011;36542;51.700;8.846;2023-04-03T15:40:49;2.60;;;1.20;;
50585;SDS011;36542;51.700;8.846;2023-04-03T15:43:14;2.73;;;1.40;;
50585;SDS011;36542;51.700;8.846;2023-04-03T15:45:40;2.60;;;1.70;;
50585;SDS011;36542;51.700;8.846;2023-04-03T15:48:07;2.43;;;1.53;;
50585;SDS011;36542;51.700;8.846;2023-04-03T15:50:34;3.53;;;1.40;;
50585;SDS011;36542;51.700;8.846;2023-04-03T15:52:59;7.10;;;1.60;;
50585;SDS011;36542;51.700;8.846;2023-04-03T15:55:27;2.83;;;1.50;;
50585;SDS011;36542;51.700;8.846;2023-04-03T15:57:54;3.43;;;2.23;;
50585;SDS011;36542;51.700;8.846;2023-04-03T16:00:20;4.30;;;1.40;;
50585;SDS011;36542;51.700;8.846;2023-04-03T16:02:47;3.67;;;1.87;;
50585;SDS011;36542;51.700;8.846;2023-04-03T16:05:16;1.83;;;1.27;;
50585;SDS011;36542;51.700;8.846;2023-04-03T16:07:43;3.50;;;1.40;;
50585;SDS011;36542;51.700;8.846;2023-04-03T16:10:09;5.67;;;1.50;;
50585;SDS011;36542;51.700;8.846;2023-04-03T16:12:35;2.27;;;1.63;;
50585;SDS011;36542;51.700;8.846;2023-04-03T16:15:01;2.50;;;1.13;;
50585;SDS011;36542;51.700;8.846;2023-04-03T16:17:27;3.60;;;1.70;;
50585;SDS011;36542;51.700;8.846;2023-04-03T16:19:53;3.67;;;1.73;;
50585;SDS011;36542;51.700;8.846;2023-04-03T16:22:20;3.47;;;1.90;;
50585;SDS011;36542;51.700;8.846;2023-04-03T16:24:48;2.20;;;1.27;;
50585;SDS011;36542;51.700;8.846;2023-04-03T16:27:14;2.00;;;1.37;;
50585;SDS011;36542;51.700;8.846;2023-04-03T16:29:40;3.47;;;1.40;;
50585;SDS011;36542;51.700;8.846;2023-04-03T16:32:06;2.03;;;1.33;;
50585;SDS011;36542;51.700;8.846;2023-04-03T16:34:31;3.70;;;1.40;;